sensor_id;sensor_type;location;lat;lon;timestamp;noise_LAeq;noise_LA_min;noise_LA_max;noise_LA01;noise_LA95
69616;Laerm;56822;52.516;4.708;2023-10-19T00:00:02;53.18;48.18;60.49;;
69616;Laerm;56822;52.516;4.708;2023-10-19T00:00:29;50.37;43.73;60.43;;
69616;Laerm;56822;52.516;4.708;2023-10-19T00:00:43;54.50;44.17;70.21;;
69616;Laerm;56822;52.516;4.708;2023-10-19T00:00:58;52.88;46.33;65.36;;
69616;Laerm;56822;52.516;4.708;2023-10-19T00:01:10;52.26;46.33;60.78;;
69616;Laerm;56822;52.516;4.708;2023-10-19T00:01:21;50.40;46.75;54.99;;
69616;Laerm;56822;52.516;4.708;2023-10-19T00:01:36;58.85;49.97;68.88;;
69616;Laerm;56822;52.516;4.708;2023-10-19T00:01:47;55.12;44.20;68.90;;
69616;Laerm;56822;52.516;4.708;2023-10-19T00:01:58;50.48;45.98;56.41;;
69616;Laerm;56822;52.516;4.708;2023-10-19T00:02:08;51.03;48.42;54.66;;
69616;Laerm;56822;52.516;4.708;2023-10-19T00:02:19;50.35;45.22;56.53;;
69616;Laerm;56822;52.516;4.708;2023-10-19T00:02:29;48.44;44.41;54.27;;
69616;Laerm;56822;52.516;4.708;2023-10-19T00:02:41;49.51;45.55;53.30;;
69616;Laerm;56822;52.516;4.708;2023-10-19T00:02:51;51.59;47.60;56.13;;
69616;Laerm;56822;52.516;4.708;2023-10-19T00:03:02;49.52;44.47;56.39;;
69616;Laerm;56822;52.516;4.708;2023-10-19T00:03:12;49.93;44.29;63.01;;
69616;Laerm;56822;52.516;4.708;2023-10-19T00:03:23;50.51;46.38;58.24;;
69616;Laerm;56822;52.516;4.708;2023-10-19T00:03:33;48.64;41.38;58.41;;
69616;Laerm;56822;52.516;4.708;2023-10-19T00:03:44;44.69;40.12;50.67;;
69616;Laerm;56822;52.516;4.708;2023-10-19T00:03:54;50.09;41.99;61.61;;
69616;Laerm;56822;52.516;4.708;2023-10-19T00:04:06;45.49;40.04;52.48;;
69616;Laerm;56822;52.516;4.708;2023-10-19T00:04:17;45.45;40.88;56.39;;
69616;Laerm;56822;52.516;4.708;2023-10-19T00:04:27;46.92;41.99;52.82;;
69616;Laerm;56822;52.516;4.708;2023-10-19T00:04:42;50.60;46.15;58.49;;
69616;Laerm;56822;52.516;4.708;2023-10-19T00:04:53;51.02;46.50;57.95;;
69616;Laerm;56822;52.516;4.708;2023-10-19T00:05:03;48.71;44.23;53.92;;
69616;Laerm;56822;52.516;4.708;2023-10-19T00:05:14;46.46;43.53;51.20;;
69616;Laerm;56822;52.516;4.708;2023-10-19T00:05:25;52.13;45.73;63.07;;
69616;Laerm;56822;52.516;4.708;2023-10-19T00:05:36;53.50;45.64;66.77;;
69616;Laerm;56822;52.516;4.708;2023-10-19T00:05:47;53.11;48.10;61.59;;
69616;Laerm;56822;52.516;4.708;2023-10-19T00:05:57;53.24;49.02;57.57;;
69616;Laerm;56822;52.516;4.708;2023-10-19T00:06:08;53.69;47.39;67.61;;
69616;Laerm;56822;52.516;4.708;2023-10-19T00:06:18;52.98;50.32;56.85;;
69616;Laerm;56822;52.516;4.708;2023-10-19T00:06:28;51.77;47.73;59.80;;
69616;Laerm;56822;52.516;4.708;2023-10-19T00:06:39;49.33;46.51;53.56;;
69616;Laerm;56822;52.516;4.708;2023-10-19T00:06:50;48.56;43.84;55.01;;
69616;Laerm;56822;52.516;4.708;2023-10-19T00:07:01;49.73;46.01;55.43;;
69616;Laerm;56822;52.516;4.708;2023-10-19T00:07:11;51.20;47.01;58.18;;
69616;Laerm;56822;52.516;4.708;2023-10-19T00:07:25;49.26;45.46;55.49;;
69616;Laerm;56822;52.516;4.708;2023-10-19T00:07:36;51.20;47.25;57.43;;
69616;Laerm;56822;52.516;4.708;2023-10-19T00:07:46;50.03;45.90;56.74;;
69616;Laerm;56822;52.516;4.708;2023-10-19T00:07:56;49.68;46.14;55.73;;
69616;Laerm;56822;52.516;4.708;2023-10-19T00:08:10;49.89;45.78;55.41;;
69616;Laerm;56822;52.516;4.708;2023-10-19T00:08:31;50.23;46.01;57.89;;
69616;Laerm;56822;52.516;4.708;2023-10-19T00:08:57;50.10;43.72;57.24;;
69616;Laerm;56822;52.516;4.708;2023-10-19T00:09:09;50.64;45.71;56.00;;
69616;Laerm;56822;52.516;4.708;2023-10-19T00:09:21;50.58;44.65;61.06;;
69616;Laerm;56822;52.516;4.708;2023-10-19T00:09:31;51.02;45.83;57.89;;
69616;Laerm;56822;52.516;4.708;2023-10-19T00:09:47;49.43;41.31;60.98;;
69616;Laerm;56822;52.516;4.708;2023-10-19T00:10:01;48.05;41.76;55.22;;
69616;Laerm;56822;52.516;4.708;2023-10-19T00:10:13;52.74;48.55;61.64;;
69616;Laerm;56822;52.516;4.708;2023-10-19T00:10:26;48.05;44.46;53.07;;
69616;Laerm;56822;52.516;4.708;2023-10-19T00:10:40;48.68;41.86;58.03;;
69616;Laerm;56822;52.516;4.708;2023-10-19T00:10:53;45.68;41.25;54.59;;
69616;Laerm;56822;52.516;4.708;2023-10-19T00:11:24;49.62;44.76;58.26;;
69616;Laerm;56822;52.516;4.708;2023-10-19T00:11:36;53.42;49.77;59.05;;
69616;Laerm;56822;52.516;4.708;2023-10-19T00:11:46;52.11;48.24;57.87;;
69616;Laerm;56822;52.516;4.708;2023-10-19T00:11:57;49.57;45.80;53.60;;
69616;Laerm;56822;52.516;4.708;2023-10-19T00:12:08;46.60;42.85;59.81;;
69616;Laerm;56822;52.516;4.708;2023-10-19T00:12:19;46.92;43.09;51.58;;
69616;Laerm;56822;52.516;4.708;2023-10-19T00:12:32;46.18;42.13;51.93;;
69616;Laerm;56822;52.516;4.708;2023-10-19T00:12:42;48.89;45.03;55.79;;
69616;Laerm;56822;52.516;4.708;2023-10-19T00:12:54;50.07;46.57;55.32;;
69616;Laerm;56822;52.516;4.708;2023-10-19T00:13:10;49.33;43.25;57.37;;
69616;Laerm;56822;52.516;4.708;2023-10-19T00:13:21;50.15;46.57;57.67;;
69616;Laerm;56822;52.516;4.708;2023-10-19T00:13:32;49.57;45.32;53.79;;
69616;Laerm;56822;52.516;4.708;2023-10-19T00:13:45;47.57;43.09;53.30;;
69616;Laerm;56822;52.516;4.708;2023-10-19T00:13:56;49.20;45.80;55.15;;
69616;Laerm;56822;52.516;4.708;2023-10-19T00:14:08;50.40;47.32;55.24;;
69616;Laerm;56822;52.516;4.708;2023-10-19T00:14:27;48.84;45.05;56.93;;
69616;Laerm;56822;52.516;4.708;2023-10-19T00:14:37;50.39;47.59;53.39;;
69616;Laerm;56822;52.516;4.708;2023-10-19T00:14:48;50.60;48.04;56.48;;
69616;Laerm;56822;52.516;4.708;2023-10-19T00:14:59;51.64;48.63;61.93;;
69616;Laerm;56822;52.516;4.708;2023-10-19T00:15:10;53.55;50.28;57.59;;
69616;Laerm;56822;52.516;4.708;2023-10-19T00:15:21;53.64;50.32;56.86;;
69616;Laerm;56822;52.516;4.708;2023-10-19T00:15:34;52.94;49.09;59.49;;
69616;Laerm;56822;52.516;4.708;2023-10-19T00:15:50;49.45;45.78;58.27;;
69616;Laerm;56822;52.516;4.708;2023-10-19T00:16:02;48.16;43.67;61.38;;
69616;Laerm;56822;52.516;4.708;2023-10-19T00:16:17;47.60;43.15;54.58;;
69616;Laerm;56822;52.516;4.708;2023-10-19T00:16:32;51.89;46.34;61.58;;
69616;Laerm;56822;52.516;4.708;2023-10-19T00:16:45;50.85;47.27;57.61;;
69616;Laerm;56822;52.516;4.708;2023-10-19T00:17:10;47.50;41.18;61.82;;
69616;Laerm;56822;52.516;4.708;2023-10-19T00:17:21;49.56;44.18;54.96;;
69616;Laerm;56822;52.516;4.708;2023-10-19T00:17:31;52.71;49.05;57.89;;
69616;Laerm;56822;52.516;4.708;2023-10-19T00:17:43;52.64;48.36;59.11;;
69616;Laerm;56822;52.516;4.708;2023-10-19T00:17:55;50.51;47.26;55.09;;
69616;Laerm;56822;52.516;4.708;2023-10-19T00:18:05;52.76;49.30;57.95;;
69616;Laerm;56822;52.516;4.708;2023-10-19T00:18:30;50.78;44.03;60.25;;
69616;Laerm;56822;52.516;4.708;2023-10-19T00:18:44;45.79;41.97;56.11;;
69616;Laerm;56822;52.516;4.708;2023-10-19T00:18:55;45.74;41.93;52.20;;
69616;Laerm;56822;52.516;4.708;2023-10-19T00:19:09;50.07;45.42;61.62;;
69616;Laerm;56822;52.516;4.708;2023-10-19T00:19:20;48.35;44.89;55.04;;
69616;Laerm;56822;52.516;4.708;2023-10-19T00:19:31;48.31;44.64;52.75;;
69616;Laerm;56822;52.516;4.708;2023-10-19T00:19:47;48.94;43.43;56.82;;
69616;Laerm;56822;52.516;4.708;2023-10-19T00:20:10;49.98;44.71;61.45;;
69616;Laerm;56822;52.516;4.708;2023-10-19T00:20:47;50.31;44.78;61.51;;
69616;Laerm;56822;52.516;4.708;2023-10-19T00:21:02;50.50;46.90;55.45;;
69616;Laerm;56822;52.516;4.708;2023-10-19T00:21:29;55.02;45.93;72.90;;
69616;Laerm;56822;52.516;4.708;2023-10-19T00:21:40;55.82;46.14;65.71;;
69616;Laerm;56822;52.516;4.708;2023-10-19T00:22:05;48.01;40.43;59.99;;
69616;Laerm;56822;52.516;4.708;2023-10-19T00:22:19;48.11;41.81;57.53;;
69616;Laerm;56822;52.516;4.708;2023-10-19T00:22:31;49.46;42.36;59.43;;
69616;Laerm;56822;52.516;4.708;2023-10-19T00:22:46;49.51;42.62;59.52;;
69616;Laerm;56822;52.516;4.708;2023-10-19T00:22:56;51.52;47.02;55.51;;
69616;Laerm;56822;52.516;4.708;2023-10-19T00:23:08;52.12;49.07;56.41;;
69616;Laerm;56822;52.516;4.708;2023-10-19T00:23:23;52.54;47.02;57.46;;
69616;Laerm;56822;52.516;4.708;2023-10-19T00:23:41;51.99;47.06;58.84;;
69616;Laerm;56822;52.516;4.708;2023-10-19T00:23:52;51.17;47.64;56.66;;
69616;Laerm;56822;52.516;4.708;2023-10-19T00:24:07;53.37;47.32;59.68;;
69616;Laerm;56822;52.516;4.708;2023-10-19T00:24:19;56.09;49.26;67.44;;
69616;Laerm;56822;52.516;4.708;2023-10-19T00:24:32;50.65;46.52;58.97;;
69616;Laerm;56822;52.516;4.708;2023-10-19T00:24:42;47.24;43.74;55.62;;
69616;Laerm;56822;52.516;4.708;2023-10-19T00:24:54;47.78;43.37;58.28;;
69616;Laerm;56822;52.516;4.708;2023-10-19T00:25:04;49.89;44.84;58.98;;
69616;Laerm;56822;52.516;4.708;2023-10-19T00:25:15;52.40;47.85;57.49;;
69616;Laerm;56822;52.516;4.708;2023-10-19T00:25:25;51.16;47.17;59.29;;
69616;Laerm;56822;52.516;4.708;2023-10-19T00:25:36;51.41;47.27;60.02;;
69616;Laerm;56822;52.516;4.708;2023-10-19T00:25:51;51.25;46.34;55.88;;
69616;Laerm;56822;52.516;4.708;2023-10-19T00:26:02;50.17;46.25;56.80;;
69616;Laerm;56822;52.516;4.708;2023-10-19T00:26:20;50.13;46.35;58.21;;
69616;Laerm;56822;52.516;4.708;2023-10-19T00:26:30;51.10;46.67;59.28;;
69616;Laerm;56822;52.516;4.708;2023-10-19T00:26:40;49.98;46.95;57.82;;
69616;Laerm;56822;52.516;4.708;2023-10-19T00:26:50;51.04;47.15;54.98;;
69616;Laerm;56822;52.516;4.708;2023-10-19T00:27:05;49.96;45.14;57.92;;
69616;Laerm;56822;52.516;4.708;2023-10-19T00:27:26;48.27;43.69;57.38;;
69616;Laerm;56822;52.516;4.708;2023-10-19T00:27:37;51.08;46.41;59.85;;
69616;Laerm;56822;52.516;4.708;2023-10-19T00:27:47;51.83;46.57;62.05;;
69616;Laerm;56822;52.516;4.708;2023-10-19T00:27:58;49.21;44.24;57.65;;
69616;Laerm;56822;52.516;4.708;2023-10-19T00:28:10;50.72;44.96;62.21;;
69616;Laerm;56822;52.516;4.708;2023-10-19T00:28:23;51.93;46.87;61.24;;
69616;Laerm;56822;52.516;4.708;2023-10-19T00:28:36;50.99;45.54;59.34;;
69616;Laerm;56822;52.516;4.708;2023-10-19T00:28:48;53.00;48.54;61.87;;
69616;Laerm;56822;52.516;4.708;2023-10-19T00:29:08;50.94;47.30;58.31;;
69616;Laerm;56822;52.516;4.708;2023-10-19T00:29:36;49.56;45.48;57.60;;
69616;Laerm;56822;52.516;4.708;2023-10-19T00:29:50;50.24;46.39;54.09;;
69616;Laerm;56822;52.516;4.708;2023-10-19T00:30:05;49.92;46.73;55.73;;
69616;Laerm;56822;52.516;4.708;2023-10-19T00:30:20;51.47;47.86;58.50;;
69616;Laerm;56822;52.516;4.708;2023-10-19T00:30:34;51.49;48.45;55.98;;
69616;Laerm;56822;52.516;4.708;2023-10-19T00:30:47;50.51;47.21;56.18;;
69616;Laerm;56822;52.516;4.708;2023-10-19T00:30:59;49.08;43.85;56.18;;
69616;Laerm;56822;52.516;4.708;2023-10-19T00:31:13;48.50;44.10;58.64;;
69616;Laerm;56822;52.516;4.708;2023-10-19T00:31:26;49.06;44.53;58.81;;
69616;Laerm;56822;52.516;4.708;2023-10-19T00:31:43;47.35;41.70;65.45;;
69616;Laerm;56822;52.516;4.708;2023-10-19T00:31:54;48.11;44.35;58.14;;
69616;Laerm;56822;52.516;4.708;2023-10-19T00:32:06;45.58;42.45;53.85;;
69616;Laerm;56822;52.516;4.708;2023-10-19T00:32:22;53.35;43.74;75.85;;
69616;Laerm;56822;52.516;4.708;2023-10-19T00:32:34;57.37;49.89;77.13;;
69616;Laerm;56822;52.516;4.708;2023-10-19T00:32:48;56.50;48.67;75.77;;
69616;Laerm;56822;52.516;4.708;2023-10-19T00:32:59;51.05;47.44;64.38;;
69616;Laerm;56822;52.516;4.708;2023-10-19T00:33:13;51.53;48.05;65.00;;
69616;Laerm;56822;52.516;4.708;2023-10-19T00:33:28;50.45;46.64;56.15;;
69616;Laerm;56822;52.516;4.708;2023-10-19T00:33:38;52.15;47.70;69.57;;
69616;Laerm;56822;52.516;4.708;2023-10-19T00:33:49;53.71;46.68;73.30;;
69616;Laerm;56822;52.516;4.708;2023-10-19T00:34:04;49.41;45.43;68.10;;
69616;Laerm;56822;52.516;4.708;2023-10-19T00:34:14;50.42;47.24;58.36;;
69616;Laerm;56822;52.516;4.708;2023-10-19T00:34:27;51.62;48.01;61.13;;
69616;Laerm;56822;52.516;4.708;2023-10-19T00:34:38;51.34;46.68;57.25;;
69616;Laerm;56822;52.516;4.708;2023-10-19T00:34:49;51.18;47.66;55.95;;
69616;Laerm;56822;52.516;4.708;2023-10-19T00:35:02;52.94;47.97;63.63;;
69616;Laerm;56822;52.516;4.708;2023-10-19T00:35:33;50.58;46.52;63.17;;
69616;Laerm;56822;52.516;4.708;2023-10-19T00:35:52;51.65;47.98;65.27;;
69616;Laerm;56822;52.516;4.708;2023-10-19T00:36:11;51.94;48.85;66.93;;
69616;Laerm;56822;52.516;4.708;2023-10-19T00:36:25;52.75;48.54;72.94;;
69616;Laerm;56822;52.516;4.708;2023-10-19T00:36:36;53.91;49.47;64.94;;
69616;Laerm;56822;52.516;4.708;2023-10-19T00:36:51;54.54;50.37;69.03;;
69616;Laerm;56822;52.516;4.708;2023-10-19T00:37:02;51.88;48.99;58.66;;
69616;Laerm;56822;52.516;4.708;2023-10-19T00:37:18;50.53;45.01;72.01;;
69616;Laerm;56822;52.516;4.708;2023-10-19T00:37:31;48.76;44.80;57.52;;
69616;Laerm;56822;52.516;4.708;2023-10-19T00:37:42;54.79;46.21;78.51;;
69616;Laerm;56822;52.516;4.708;2023-10-19T00:37:55;51.69;46.68;69.73;;
69616;Laerm;56822;52.516;4.708;2023-10-19T00:38:08;48.17;44.16;54.87;;
69616;Laerm;56822;52.516;4.708;2023-10-19T00:38:39;47.70;42.57;55.85;;
69616;Laerm;56822;52.516;4.708;2023-10-19T00:39:10;50.38;45.92;60.22;;
69616;Laerm;56822;52.516;4.708;2023-10-19T00:39:26;48.14;42.30;59.19;;
69616;Laerm;56822;52.516;4.708;2023-10-19T00:39:37;45.69;41.00;51.38;;
69616;Laerm;56822;52.516;4.708;2023-10-19T00:39:54;46.71;41.63;55.84;;
69616;Laerm;56822;52.516;4.708;2023-10-19T00:40:05;48.77;45.22;52.78;;
69616;Laerm;56822;52.516;4.708;2023-10-19T00:40:26;48.07;43.48;60.57;;
69616;Laerm;56822;52.516;4.708;2023-10-19T00:40:55;47.98;42.49;61.12;;
69616;Laerm;56822;52.516;4.708;2023-10-19T00:41:10;50.30;46.09;55.39;;
69616;Laerm;56822;52.516;4.708;2023-10-19T00:41:21;53.16;49.04;59.30;;
69616;Laerm;56822;52.516;4.708;2023-10-19T00:41:37;56.83;51.85;59.73;;
69616;Laerm;56822;52.516;4.708;2023-10-19T00:41:48;56.96;54.09;60.00;;
69616;Laerm;56822;52.516;4.708;2023-10-19T00:41:58;56.27;54.14;58.87;;
69616;Laerm;56822;52.516;4.708;2023-10-19T00:42:09;57.12;53.61;63.50;;
69616;Laerm;56822;52.516;4.708;2023-10-19T00:42:19;53.88;50.45;59.45;;
69616;Laerm;56822;52.516;4.708;2023-10-19T00:42:34;50.96;46.21;54.26;;
69616;Laerm;56822;52.516;4.708;2023-10-19T00:42:48;49.10;45.28;58.19;;
69616;Laerm;56822;52.516;4.708;2023-10-19T00:43:04;53.74;47.66;59.93;;
69616;Laerm;56822;52.516;4.708;2023-10-19T00:43:27;52.89;46.32;58.07;;
69616;Laerm;56822;52.516;4.708;2023-10-19T00:43:41;48.62;45.65;55.36;;
69616;Laerm;56822;52.516;4.708;2023-10-19T00:43:55;48.71;44.67;58.13;;
69616;Laerm;56822;52.516;4.708;2023-10-19T00:44:13;51.47;47.73;65.02;;
69616;Laerm;56822;52.516;4.708;2023-10-19T00:44:26;49.66;45.17;56.69;;
69616;Laerm;56822;52.516;4.708;2023-10-19T00:44:48;48.56;44.02;60.66;;
69616;Laerm;56822;52.516;4.708;2023-10-19T00:45:01;49.81;43.84;55.00;;
69616;Laerm;56822;52.516;4.708;2023-10-19T00:45:15;49.47;44.71;61.87;;
69616;Laerm;56822;52.516;4.708;2023-10-19T00:45:25;48.03;43.97;54.79;;
69616;Laerm;56822;52.516;4.708;2023-10-19T00:45:37;47.57;43.11;53.58;;
69616;Laerm;56822;52.516;4.708;2023-10-19T00:45:51;45.81;42.46;51.03;;
69616;Laerm;56822;52.516;4.708;2023-10-19T00:46:02;48.38;43.45;61.64;;
69616;Laerm;56822;52.516;4.708;2023-10-19T00:46:20;49.18;45.24;56.30;;
69616;Laerm;56822;52.516;4.708;2023-10-19T00:46:30;50.39;46.91;55.62;;
69616;Laerm;56822;52.516;4.708;2023-10-19T00:46:53;49.25;45.16;55.69;;
69616;Laerm;56822;52.516;4.708;2023-10-19T00:47:13;46.29;41.33;55.34;;
69616;Laerm;56822;52.516;4.708;2023-10-19T00:47:23;45.96;41.10;56.74;;
69616;Laerm;56822;52.516;4.708;2023-10-19T00:47:34;46.95;43.17;51.34;;
69616;Laerm;56822;52.516;4.708;2023-10-19T00:47:52;50.90;45.62;54.81;;
69616;Laerm;56822;52.516;4.708;2023-10-19T00:48:03;52.11;49.09;56.10;;
69616;Laerm;56822;52.516;4.708;2023-10-19T00:48:14;48.89;44.38;54.39;;
69616;Laerm;56822;52.516;4.708;2023-10-19T00:48:27;46.19;42.66;51.49;;
69616;Laerm;56822;52.516;4.708;2023-10-19T00:48:38;49.28;44.29;57.06;;
69616;Laerm;56822;52.516;4.708;2023-10-19T00:48:53;46.87;43.86;51.73;;
69616;Laerm;56822;52.516;4.708;2023-10-19T00:49:05;49.83;44.31;56.59;;
69616;Laerm;56822;52.516;4.708;2023-10-19T00:49:19;48.57;43.47;56.07;;
69616;Laerm;56822;52.516;4.708;2023-10-19T00:49:33;50.56;46.50;59.23;;
69616;Laerm;56822;52.516;4.708;2023-10-19T00:49:43;52.18;48.58;56.76;;
69616;Laerm;56822;52.516;4.708;2023-10-19T00:49:54;50.82;46.55;55.86;;
69616;Laerm;56822;52.516;4.708;2023-10-19T00:50:06;48.06;44.93;53.69;;
69616;Laerm;56822;52.516;4.708;2023-10-19T00:50:24;51.07;45.85;56.48;;
69616;Laerm;56822;52.516;4.708;2023-10-19T00:50:37;51.73;48.08;60.19;;
69616;Laerm;56822;52.516;4.708;2023-10-19T00:50:48;51.78;45.17;66.44;;
69616;Laerm;56822;52.516;4.708;2023-10-19T00:51:03;48.89;46.49;54.35;;
69616;Laerm;56822;52.516;4.708;2023-10-19T00:51:22;47.67;44.13;51.49;;
69616;Laerm;56822;52.516;4.708;2023-10-19T00:51:56;48.89;44.01;56.83;;
69616;Laerm;56822;52.516;4.708;2023-10-19T00:52:21;49.11;44.43;54.51;;
69616;Laerm;56822;52.516;4.708;2023-10-19T00:52:34;48.52;45.34;53.07;;
69616;Laerm;56822;52.516;4.708;2023-10-19T00:52:53;51.22;47.26;58.53;;
69616;Laerm;56822;52.516;4.708;2023-10-19T00:53:04;50.00;46.37;57.85;;
69616;Laerm;56822;52.516;4.708;2023-10-19T00:53:18;49.48;46.45;54.67;;
69616;Laerm;56822;52.516;4.708;2023-10-19T00:53:28;46.02;42.79;51.00;;
69616;Laerm;56822;52.516;4.708;2023-10-19T00:53:39;45.77;42.20;52.85;;
69616;Laerm;56822;52.516;4.708;2023-10-19T00:53:49;47.78;43.89;51.97;;
69616;Laerm;56822;52.516;4.708;2023-10-19T00:54:02;52.80;48.78;57.73;;
69616;Laerm;56822;52.516;4.708;2023-10-19T00:54:19;49.93;44.89;55.36;;
69616;Laerm;56822;52.516;4.708;2023-10-19T00:54:45;47.05;41.47;53.41;;
69616;Laerm;56822;52.516;4.708;2023-10-19T00:54:59;47.38;41.04;53.90;;
69616;Laerm;56822;52.516;4.708;2023-10-19T00:55:09;45.87;42.91;50.71;;
69616;Laerm;56822;52.516;4.708;2023-10-19T00:55:22;48.31;43.85;62.61;;
69616;Laerm;56822;52.516;4.708;2023-10-19T00:55:36;52.47;48.62;58.52;;
69616;Laerm;56822;52.516;4.708;2023-10-19T00:55:46;53.25;48.74;58.83;;
69616;Laerm;56822;52.516;4.708;2023-10-19T00:55:56;50.26;44.99;56.34;;
69616;Laerm;56822;52.516;4.708;2023-10-19T00:56:08;45.18;42.05;49.97;;
69616;Laerm;56822;52.516;4.708;2023-10-19T00:56:19;47.41;42.04;56.68;;
69616;Laerm;56822;52.516;4.708;2023-10-19T00:56:33;49.35;44.05;55.58;;
69616;Laerm;56822;52.516;4.708;2023-10-19T00:56:45;48.29;44.17;55.30;;
69616;Laerm;56822;52.516;4.708;2023-10-19T00:56:58;46.16;42.02;52.05;;
69616;Laerm;56822;52.516;4.708;2023-10-19T00:57:13;46.96;42.76;55.57;;
69616;Laerm;56822;52.516;4.708;2023-10-19T00:57:29;50.02;45.44;54.56;;
69616;Laerm;56822;52.516;4.708;2023-10-19T00:57:44;51.63;48.07;56.86;;
69616;Laerm;56822;52.516;4.708;2023-10-19T00:57:58;51.40;48.07;57.56;;
69616;Laerm;56822;52.516;4.708;2023-10-19T00:58:14;49.44;45.32;53.99;;
69616;Laerm;56822;52.516;4.708;2023-10-19T00:58:28;51.04;47.18;55.95;;
69616;Laerm;56822;52.516;4.708;2023-10-19T00:58:41;49.15;46.18;53.37;;
69616;Laerm;56822;52.516;4.708;2023-10-19T00:58:52;49.36;46.62;52.85;;
69616;Laerm;56822;52.516;4.708;2023-10-19T00:59:10;50.23;47.52;59.80;;
69616;Laerm;56822;52.516;4.708;2023-10-19T00:59:31;48.52;45.50;52.95;;
69616;Laerm;56822;52.516;4.708;2023-10-19T00:59:45;50.97;45.59;61.88;;
69616;Laerm;56822;52.516;4.708;2023-10-19T01:00:25;49.23;45.57;56.01;;
69616;Laerm;56822;52.516;4.708;2023-10-19T01:00:45;48.96;44.38;55.75;;
69616;Laerm;56822;52.516;4.708;2023-10-19T01:00:55;49.99;46.10;59.18;;
69616;Laerm;56822;52.516;4.708;2023-10-19T01:01:06;48.93;43.48;56.36;;
69616;Laerm;56822;52.516;4.708;2023-10-19T01:01:17;46.30;40.94;52.61;;
69616;Laerm;56822;52.516;4.708;2023-10-19T01:01:30;44.83;39.35;49.98;;
69616;Laerm;56822;52.516;4.708;2023-10-19T01:01:41;43.88;38.78;51.44;;
69616;Laerm;56822;52.516;4.708;2023-10-19T01:01:55;42.80;37.84;47.66;;
69616;Laerm;56822;52.516;4.708;2023-10-19T01:02:13;46.26;39.47;52.71;;
69616;Laerm;56822;52.516;4.708;2023-10-19T01:02:27;48.18;43.54;51.73;;
69616;Laerm;56822;52.516;4.708;2023-10-19T01:02:38;48.48;45.54;52.07;;
69616;Laerm;56822;52.516;4.708;2023-10-19T01:02:56;47.35;40.20;56.71;;
69616;Laerm;56822;52.516;4.708;2023-10-19T01:03:10;43.18;38.04;52.59;;
69616;Laerm;56822;52.516;4.708;2023-10-19T01:03:24;42.74;38.20;48.19;;
69616;Laerm;56822;52.516;4.708;2023-10-19T01:03:42;46.18;41.31;55.75;;
69616;Laerm;56822;52.516;4.708;2023-10-19T01:03:55;55.82;49.45;59.31;;
69616;Laerm;56822;52.516;4.708;2023-10-19T01:04:09;58.04;53.76;63.56;;
69616;Laerm;56822;52.516;4.708;2023-10-19T01:04:24;55.95;53.05;59.97;;
69616;Laerm;56822;52.516;4.708;2023-10-19T01:04:35;56.44;52.95;61.94;;
69616;Laerm;56822;52.516;4.708;2023-10-19T01:04:46;57.88;49.16;64.04;;
69616;Laerm;56822;52.516;4.708;2023-10-19T01:05:00;45.53;38.81;53.38;;
69616;Laerm;56822;52.516;4.708;2023-10-19T01:05:15;43.17;37.65;56.01;;
69616;Laerm;56822;52.516;4.708;2023-10-19T01:05:31;45.28;39.93;51.84;;
69616;Laerm;56822;52.516;4.708;2023-10-19T01:05:45;46.08;41.78;52.60;;
69616;Laerm;56822;52.516;4.708;2023-10-19T01:05:58;44.78;40.38;54.46;;
69616;Laerm;56822;52.516;4.708;2023-10-19T01:06:10;45.42;41.00;54.17;;
69616;Laerm;56822;52.516;4.708;2023-10-19T01:06:20;45.73;41.61;50.64;;
69616;Laerm;56822;52.516;4.708;2023-10-19T01:06:30;49.03;44.58;52.33;;
69616;Laerm;56822;52.516;4.708;2023-10-19T01:06:43;49.04;45.93;54.20;;
69616;Laerm;56822;52.516;4.708;2023-10-19T01:06:54;45.82;41.92;49.91;;
69616;Laerm;56822;52.516;4.708;2023-10-19T01:07:13;48.60;42.67;54.06;;
69616;Laerm;56822;52.516;4.708;2023-10-19T01:07:32;49.58;44.78;55.41;;
69616;Laerm;56822;52.516;4.708;2023-10-19T01:07:48;50.99;47.02;55.08;;
69616;Laerm;56822;52.516;4.708;2023-10-19T01:08:07;49.13;44.16;55.62;;
69616;Laerm;56822;52.516;4.708;2023-10-19T01:08:34;48.65;41.75;65.30;;
69616;Laerm;56822;52.516;4.708;2023-10-19T01:08:52;45.62;40.24;54.81;;
69616;Laerm;56822;52.516;4.708;2023-10-19T01:09:02;45.89;41.69;53.00;;
69616;Laerm;56822;52.516;4.708;2023-10-19T01:09:13;45.18;40.67;52.55;;
69616;Laerm;56822;52.516;4.708;2023-10-19T01:09:30;46.76;41.55;59.50;;
69616;Laerm;56822;52.516;4.708;2023-10-19T01:09:45;44.19;39.01;50.78;;
69616;Laerm;56822;52.516;4.708;2023-10-19T01:09:57;44.77;38.59;55.34;;
69616;Laerm;56822;52.516;4.708;2023-10-19T01:10:09;45.96;40.85;51.53;;
69616;Laerm;56822;52.516;4.708;2023-10-19T01:10:22;52.96;45.91;59.93;;
69616;Laerm;56822;52.516;4.708;2023-10-19T01:10:33;50.62;46.77;57.87;;
69616;Laerm;56822;52.516;4.708;2023-10-19T01:10:46;50.40;45.30;56.88;;
69616;Laerm;56822;52.516;4.708;2023-10-19T01:11:01;49.08;44.44;60.03;;
69616;Laerm;56822;52.516;4.708;2023-10-19T01:11:14;48.26;44.72;58.18;;
69616;Laerm;56822;52.516;4.708;2023-10-19T01:11:30;49.46;45.59;54.45;;
69616;Laerm;56822;52.516;4.708;2023-10-19T01:11:42;47.04;43.41;56.90;;
69616;Laerm;56822;52.516;4.708;2023-10-19T01:11:55;50.41;43.75;60.90;;
69616;Laerm;56822;52.516;4.708;2023-10-19T01:12:11;49.37;44.46;60.21;;
69616;Laerm;56822;52.516;4.708;2023-10-19T01:12:33;53.36;45.37;62.41;;
69616;Laerm;56822;52.516;4.708;2023-10-19T01:12:49;53.27;47.86;59.54;;
69616;Laerm;56822;52.516;4.708;2023-10-19T01:13:02;49.57;45.71;54.89;;
69616;Laerm;56822;52.516;4.708;2023-10-19T01:13:15;49.86;45.40;54.91;;
69616;Laerm;56822;52.516;4.708;2023-10-19T01:13:26;49.00;45.51;53.51;;
69616;Laerm;56822;52.516;4.708;2023-10-19T01:13:40;49.75;47.73;53.23;;
69616;Laerm;56822;52.516;4.708;2023-10-19T01:14:17;50.91;44.51;59.24;;
69616;Laerm;56822;52.516;4.708;2023-10-19T01:14:27;49.68;42.61;58.72;;
69616;Laerm;56822;52.516;4.708;2023-10-19T01:14:38;46.86;43.06;54.94;;
69616;Laerm;56822;52.516;4.708;2023-10-19T01:15:23;43.29;36.80;51.68;;
69616;Laerm;56822;52.516;4.708;2023-10-19T01:15:39;43.49;37.92;59.41;;
69616;Laerm;56822;52.516;4.708;2023-10-19T01:15:49;43.07;38.38;48.99;;
69616;Laerm;56822;52.516;4.708;2023-10-19T01:16:00;44.43;38.95;56.21;;
69616;Laerm;56822;52.516;4.708;2023-10-19T01:16:16;46.85;41.44;53.89;;
69616;Laerm;56822;52.516;4.708;2023-10-19T01:16:33;49.25;44.62;64.25;;
69616;Laerm;56822;52.516;4.708;2023-10-19T01:16:46;50.08;43.87;61.85;;
69616;Laerm;56822;52.516;4.708;2023-10-19T01:16:58;50.01;46.73;54.39;;
69616;Laerm;56822;52.516;4.708;2023-10-19T01:17:09;52.28;48.26;56.56;;
69616;Laerm;56822;52.516;4.708;2023-10-19T01:17:21;53.36;46.63;61.24;;
69616;Laerm;56822;52.516;4.708;2023-10-19T01:17:32;50.34;47.12;55.24;;
69616;Laerm;56822;52.516;4.708;2023-10-19T01:17:48;50.53;46.71;54.52;;
69616;Laerm;56822;52.516;4.708;2023-10-19T01:18:02;53.00;50.18;56.73;;
69616;Laerm;56822;52.516;4.708;2023-10-19T01:18:13;53.28;47.51;65.63;;
69616;Laerm;56822;52.516;4.708;2023-10-19T01:18:24;50.87;45.02;61.34;;
69616;Laerm;56822;52.516;4.708;2023-10-19T01:18:39;50.18;45.96;55.37;;
69616;Laerm;56822;52.516;4.708;2023-10-19T01:18:53;51.14;47.15;57.34;;
69616;Laerm;56822;52.516;4.708;2023-10-19T01:19:03;49.61;46.39;53.97;;